sensor_id;sensor_type;location;lat;lon;timestamp;temperature;humidity
34776;DHT22;20989;52.566;13.346;2023-06-10T00:01:59;26.70;42.70
34776;DHT22;20989;52.566;13.346;2023-06-10T00:05:00;26.70;42.70
34776;DHT22;20989;52.566;13.346;2023-06-10T00:08:01;26.70;42.70
34776;DHT22;20989;52.566;13.346;2023-06-10T00:11:07;26.70;42.60
34776;DHT22;20989;52.566;13.346;2023-06-10T00:14:08;26.70;42.80
34776;DHT22;20989;52.566;13.346;2023-06-10T00:17:08;26.70;42.80
34776;DHT22;20989;52.566;13.346;2023-06-10T00:20:10;26.70;42.80
34776;DHT22;20989;52.566;13.346;2023-06-10T00:23:12;26.70;42.80
34776;DHT22;20989;52.566;13.346;2023-06-10T00:26:13;26.70;42.70
34776;DHT22;20989;52.566;13.346;2023-06-10T00:29:14;26.70;42.70
34776;DHT22;20989;52.566;13.346;2023-06-10T00:32:15;26.60;42.70
34776;DHT22;20989;52.566;13.346;2023-06-10T00:35:16;26.70;42.80
34776;DHT22;20989;52.566;13.346;2023-06-10T00:38:17;26.70;42.60
34776;DHT22;20989;52.566;13.346;2023-06-10T00:41:18;26.70;42.60
34776;DHT22;20989;52.566;13.346;2023-06-10T00:44:18;26.70;42.70
34776;DHT22;20989;52.566;13.346;2023-06-10T00:47:19;26.70;42.70
34776;DHT22;20989;52.566;13.346;2023-06-10T00:50:21;26.70;42.80
34776;DHT22;20989;52.566;13.346;2023-06-10T00:53:22;26.70;42.80
34776;DHT22;20989;52.566;13.346;2023-06-10T00:56:23;26.70;42.90
34776;DHT22;20989;52.566;13.346;2023-06-10T00:59:24;26.70;42.80
34776;DHT22;20989;52.566;13.346;2023-06-10T01:02:26;26.70;42.80
34776;DHT22;20989;52.566;13.346;2023-06-10T01:05:28;26.70;42.80
34776;DHT22;20989;52.566;13.346;2023-06-10T01:08:35;26.60;42.70
34776;DHT22;20989;52.566;13.346;2023-06-10T01:11:47;26.70;42.80
34776;DHT22;20989;52.566;13.346;2023-06-10T01:14:48;26.60;42.70
34776;DHT22;20989;52.566;13.346;2023-06-10T01:18:02;26.60;42.80
34776;DHT22;20989;52.566;13.346;2023-06-10T01:21:03;26.70;42.90
34776;DHT22;20989;52.566;13.346;2023-06-10T01:24:04;26.60;42.90
34776;DHT22;20989;52.566;13.346;2023-06-10T01:27:13;26.70;43.00
34776;DHT22;20989;52.566;13.346;2023-06-10T01:30:18;26.60;42.90
34776;DHT22;20989;52.566;13.346;2023-06-10T01:33:29;26.60;42.90
34776;DHT22;20989;52.566;13.346;2023-06-10T01:36:32;26.60;42.80
34776;DHT22;20989;52.566;13.346;2023-06-10T01:39:34;26.60;42.90
34776;DHT22;20989;52.566;13.346;2023-06-10T01:42:35;26.60;42.80
34776;DHT22;20989;52.566;13.346;2023-06-10T01:45:36;26.60;42.90
34776;DHT22;20989;52.566;13.346;2023-06-10T01:48:38;26.60;42.90
34776;DHT22;20989;52.566;13.346;2023-06-10T01:51:39;26.60;42.90
34776;DHT22;20989;52.566;13.346;2023-06-10T01:54:40;26.60;42.90
34776;DHT22;20989;52.566;13.346;2023-06-10T01:57:40;26.60;42.90
34776;DHT22;20989;52.566;13.346;2023-06-10T02:00:41;26.60;43.00
34776;DHT22;20989;52.566;13.346;2023-06-10T02:03:42;26.60;43.00
34776;DHT22;20989;52.566;13.346;2023-06-10T02:06:43;26.60;43.00
34776;DHT22;20989;52.566;13.346;2023-06-10T02:09:43;26.60;43.00
34776;DHT22;20989;52.566;13.346;2023-06-10T02:12:44;26.60;43.00
34776;DHT22;20989;52.566;13.346;2023-06-10T02:15:45;26.60;43.00
34776;DHT22;20989;52.566;13.346;2023-06-10T02:18:46;26.60;43.00
34776;DHT22;20989;52.566;13.346;2023-06-10T02:21:47;26.60;43.00
34776;DHT22;20989;52.566;13.346;2023-06-10T02:24:48;26.60;42.90
34776;DHT22;20989;52.566;13.346;2023-06-10T02:27:49;26.60;42.90
34776;DHT22;20989;52.566;13.346;2023-06-10T02:30:51;26.60;43.00
34776;DHT22;20989;52.566;13.346;2023-06-10T02:33:52;26.60;43.00
34776;DHT22;20989;52.566;13.346;2023-06-10T02:36:53;26.60;43.10
34776;DHT22;20989;52.566;13.346;2023-06-10T02:39:54;26.60;43.10
34776;DHT22;20989;52.566;13.346;2023-06-10T02:42:54;26.60;43.00
34776;DHT22;20989;52.566;13.346;2023-06-10T02:45:55;26.60;43.10
34776;DHT22;20989;52.566;13.346;2023-06-10T02:48:56;26.60;43.10
34776;DHT22;20989;52.566;13.346;2023-06-10T02:51:57;26.60;43.00
34776;DHT22;20989;52.566;13.346;2023-06-10T02:54:57;26.60;43.00
34776;DHT22;20989;52.566;13.346;2023-06-10T02:57:58;26.60;43.10
34776;DHT22;20989;52.566;13.346;2023-06-10T03:01:00;26.60;43.10
34776;DHT22;20989;52.566;13.346;2023-06-10T03:04:01;26.60;43.20
34776;DHT22;20989;52.566;13.346;2023-06-10T03:07:03;26.60;43.10
34776;DHT22;20989;52.566;13.346;2023-06-10T03:10:08;26.50;43.00
34776;DHT22;20989;52.566;13.346;2023-06-10T03:13:10;26.50;43.00
34776;DHT22;20989;52.566;13.346;2023-06-10T03:16:10;26.50;43.10
34776;DHT22;20989;52.566;13.346;2023-06-10T03:19:12;26.60;43.20
34776;DHT22;20989;52.566;13.346;2023-06-10T03:22:14;26.50;43.50
34776;DHT22;20989;52.566;13.346;2023-06-10T03:25:15;26.50;43.10
34776;DHT22;20989;52.566;13.346;2023-06-10T03:28:16;26.50;43.20
34776;DHT22;20989;52.566;13.346;2023-06-10T03:31:17;26.50;43.10
34776;DHT22;20989;52.566;13.346;2023-06-10T03:34:18;26.50;43.10
34776;DHT22;20989;52.566;13.346;2023-06-10T03:37:19;26.50;43.10
34776;DHT22;20989;52.566;13.346;2023-06-10T03:40:19;26.50;43.20
34776;DHT22;20989;52.566;13.346;2023-06-10T03:43:20;26.50;43.10
34776;DHT22;20989;52.566;13.346;2023-06-10T03:46:22;26.50;43.20
34776;DHT22;20989;52.566;13.346;2023-06-10T03:49:22;26.50;43.70
34776;DHT22;20989;52.566;13.346;2023-06-10T03:52:26;26.50;43.10
34776;DHT22;20989;52.566;13.346;2023-06-10T03:55:26;26.50;43.20
34776;DHT22;20989;52.566;13.346;2023-06-10T03:58:27;26.50;43.10
34776;DHT22;20989;52.566;13.346;2023-06-10T04:01:28;26.50;43.20
34776;DHT22;20989;52.566;13.346;2023-06-10T04:04:29;26.50;43.20
34776;DHT22;20989;52.566;13.346;2023-06-10T04:07:30;26.50;43.20
34776;DHT22;20989;52.566;13.346;2023-06-10T04:10:31;26.50;43.20
34776;DHT22;20989;52.566;13.346;2023-06-10T04:13:32;26.50;43.30
34776;DHT22;20989;52.566;13.346;2023-06-10T04:16:33;26.50;43.20
34776;DHT22;20989;52.566;13.346;2023-06-10T04:19:33;26.50;43.20
34776;DHT22;20989;52.566;13.346;2023-06-10T04:22:34;26.50;43.30
34776;DHT22;20989;52.566;13.346;2023-06-10T04:25:36;26.50;43.30
34776;DHT22;20989;52.566;13.346;2023-06-10T04:28:37;26.50;43.20
34776;DHT22;20989;52.566;13.346;2023-06-10T04:31:38;26.50;43.20
34776;DHT22;20989;52.566;13.346;2023-06-10T04:34:38;26.50;43.20
34776;DHT22;20989;52.566;13.346;2023-06-10T04:37:40;26.50;43.20
34776;DHT22;20989;52.566;13.346;2023-06-10T04:40:41;26.50;43.30
34776;DHT22;20989;52.566;13.346;2023-06-10T04:43:42;26.50;43.20
34776;DHT22;20989;52.566;13.346;2023-06-10T04:46:43;26.50;43.30
34776;DHT22;20989;52.566;13.346;2023-06-10T04:49:44;26.50;43.40
34776;DHT22;20989;52.566;13.346;2023-06-10T04:52:45;26.50;43.20
34776;DHT22;20989;52.566;13.346;2023-06-10T04:55:46;26.50;43.20
34776;DHT22;20989;52.566;13.346;2023-06-10T04:58:47;26.50;43.30
34776;DHT22;20989;52.566;13.346;2023-06-10T05:01:47;26.50;43.30
34776;DHT22;20989;52.566;13.346;2023-06-10T05:04:48;26.50;43.40
34776;DHT22;20989;52.566;13.346;2023-06-10T05:07:49;26.50;43.40
34776;DHT22;20989;52.566;13.346;2023-06-10T05:10:50;26.50;43.40
34776;DHT22;20989;52.566;13.346;2023-06-10T05:13:50;26.50;43.40
34776;DHT22;20989;52.566;13.346;2023-06-10T05:16:52;26.50;43.40
34776;DHT22;20989;52.566;13.346;2023-06-10T05:19:53;26.50;43.40
34776;DHT22;20989;52.566;13.346;2023-06-10T05:22:54;26.50;43.50
34776;DHT22;20989;52.566;13.346;2023-06-10T05:25:55;26.50;43.30
34776;DHT22;20989;52.566;13.346;2023-06-10T05:28:55;26.40;43.40
34776;DHT22;20989;52.566;13.346;2023-06-10T05:31:57;26.50;43.40
34776;DHT22;20989;52.566;13.346;2023-06-10T05:35:00;26.40;43.40
34776;DHT22;20989;52.566;13.346;2023-06-10T05:38:02;26.40;43.40
34776;DHT22;20989;52.566;13.346;2023-06-10T05:41:03;26.50;43.30
34776;DHT22;20989;52.566;13.346;2023-06-10T05:44:04;26.50;43.50
34776;DHT22;20989;52.566;13.346;2023-06-10T05:47:05;26.40;43.40
34776;DHT22;20989;52.566;13.346;2023-06-10T05:50:06;26.50;43.50
34776;DHT22;20989;52.566;13.346;2023-06-10T05:53:10;26.50;43.40
34776;DHT22;20989;52.566;13.346;2023-06-10T05:56:15;26.40;43.40
34776;DHT22;20989;52.566;13.346;2023-06-10T05:59:16;26.50;43.50
34776;DHT22;20989;52.566;13.346;2023-06-10T06:02:16;26.40;43.90
34776;DHT22;20989;52.566;13.346;2023-06-10T06:05:18;26.40;43.50
34776;DHT22;20989;52.566;13.346;2023-06-10T06:08:19;26.40;43.40
34776;DHT22;20989;52.566;13.346;2023-06-10T06:11:19;26.40;43.50
34776;DHT22;20989;52.566;13.346;2023-06-10T06:14:20;26.40;43.60
34776;DHT22;20989;52.566;13.346;2023-06-10T06:17:21;26.40;43.60
34776;DHT22;20989;52.566;13.346;2023-06-10T06:20:22;26.40;43.60
34776;DHT22;20989;52.566;13.346;2023-06-10T06:23:23;26.40;43.60
34776;DHT22;20989;52.566;13.346;2023-06-10T06:26:23;26.40;43.60
34776;DHT22;20989;52.566;13.346;2023-06-10T06:29:24;26.40;44.10
34776;DHT22;20989;52.566;13.346;2023-06-10T06:32:25;26.50;43.60
34776;DHT22;20989;52.566;13.346;2023-06-10T06:35:30;26.40;43.50
34776;DHT22;20989;52.566;13.346;2023-06-10T06:38:30;26.40;43.60
34776;DHT22;20989;52.566;13.346;2023-06-10T06:41:31;26.40;43.60
34776;DHT22;20989;52.566;13.346;2023-06-10T06:44:32;26.40;43.60
34776;DHT22;20989;52.566;13.346;2023-06-10T06:47:33;26.40;43.60
34776;DHT22;20989;52.566;13.346;2023-06-10T06:50:33;26.40;43.60
34776;DHT22;20989;52.566;13.346;2023-06-10T06:53:34;26.40;43.50
34776;DHT22;20989;52.566;13.346;2023-06-10T06:56:36;26.40;43.60
34776;DHT22;20989;52.566;13.346;2023-06-10T06:59:37;26.40;43.70
34776;DHT22;20989;52.566;13.346;2023-06-10T07:02:37;26.50;43.70
34776;DHT22;20989;52.566;13.346;2023-06-10T07:05:38;26.40;43.60
34776;DHT22;20989;52.566;13.346;2023-06-10T07:08:39;26.40;43.60
34776;DHT22;20989;52.566;13.346;2023-06-10T07:11:40;26.40;43.60
34776;DHT22;20989;52.566;13.346;2023-06-10T07:14:41;26.40;43.70
34776;DHT22;20989;52.566;13.346;2023-06-10T07:17:42;26.40;43.80
34776;DHT22;20989;52.566;13.346;2023-06-10T07:20:43;26.40;43.70
34776;DHT22;20989;52.566;13.346;2023-06-10T07:23:44;26.40;43.70
34776;DHT22;20989;52.566;13.346;2023-06-10T07:26:45;26.40;43.60
34776;DHT22;20989;52.566;13.346;2023-06-10T07:29:46;26.40;43.80
34776;DHT22;20989;52.566;13.346;2023-06-10T07:32:46;26.40;43.80
34776;DHT22;20989;52.566;13.346;2023-06-10T07:35:47;26.40;43.80
34776;DHT22;20989;52.566;13.346;2023-06-10T07:38:48;26.40;43.80
34776;DHT22;20989;52.566;13.346;2023-06-10T07:41:49;26.40;43.80
34776;DHT22;20989;52.566;13.346;2023-06-10T07:44:50;26.40;43.70
34776;DHT22;20989;52.566;13.346;2023-06-10T07:47:51;26.40;43.60
34776;DHT22;20989;52.566;13.346;2023-06-10T07:50:52;26.40;43.60
34776;DHT22;20989;52.566;13.346;2023-06-10T07:53:52;26.40;43.90
34776;DHT22;20989;52.566;13.346;2023-06-10T07:56:53;26.40;44.00
34776;DHT22;20989;52.566;13.346;2023-06-10T07:59:54;26.40;44.00
34776;DHT22;20989;52.566;13.346;2023-06-10T08:02:55;26.40;43.80
34776;DHT22;20989;52.566;13.346;2023-06-10T08:05:56;26.40;43.90
34776;DHT22;20989;52.566;13.346;2023-06-10T08:08:57;26.50;43.90
34776;DHT22;20989;52.566;13.346;2023-06-10T08:11:57;26.40;43.90
34776;DHT22;20989;52.566;13.346;2023-06-10T08:14:58;26.40;43.90
34776;DHT22;20989;52.566;13.346;2023-06-10T08:17:59;26.40;44.00
34776;DHT22;20989;52.566;13.346;2023-06-10T08:21:00;26.40;44.00
34776;DHT22;20989;52.566;13.346;2023-06-10T08:24:01;26.40;44.00
34776;DHT22;20989;52.566;13.346;2023-06-10T08:27:01;26.40;44.00
34776;DHT22;20989;52.566;13.346;2023-06-10T08:30:02;26.40;44.10
34776;DHT22;20989;52.566;13.346;2023-06-10T08:33:03;26.40;44.20
34776;DHT22;20989;52.566;13.346;2023-06-10T08:36:04;26.40;44.20
34776;DHT22;20989;52.566;13.346;2023-06-10T08:39:05;26.50;44.10
34776;DHT22;20989;52.566;13.346;2023-06-10T08:45:29;26.60;44.50
34776;DHT22;20989;52.566;13.346;2023-06-10T08:48:34;26.60;44.30
34776;DHT22;20989;52.566;13.346;2023-06-10T08:51:37;26.70;44.50
34776;DHT22;20989;52.566;13.346;2023-06-10T08:54:38;26.60;44.40
34776;DHT22;20989;52.566;13.346;2023-06-10T08:57:42;26.60;44.80
34776;DHT22;20989;52.566;13.346;2023-06-10T09:00:45;26.70;45.60
34776;DHT22;20989;52.566;13.346;2023-06-10T09:03:46;26.60;45.80
34776;DHT22;20989;52.566;13.346;2023-06-10T09:06:47;26.60;45.00
34776;DHT22;20989;52.566;13.346;2023-06-10T09:09:49;26.60;45.10
34776;DHT22;20989;52.566;13.346;2023-06-10T09:12:50;26.50;44.90
34776;DHT22;20989;52.566;13.346;2023-06-10T09:15:51;26.50;45.00
34776;DHT22;20989;52.566;13.346;2023-06-10T09:18:52;26.50;45.10
34776;DHT22;20989;52.566;13.346;2023-06-10T09:21:55;26.50;45.10
34776;DHT22;20989;52.566;13.346;2023-06-10T09:25:07;26.40;45.10
34776;DHT22;20989;52.566;13.346;2023-06-10T09:28:15;26.40;45.10
34776;DHT22;20989;52.566;13.346;2023-06-10T09:31:16;26.40;45.10
34776;DHT22;20989;52.566;13.346;2023-06-10T09:34:25;26.40;44.90
34776;DHT22;20989;52.566;13.346;2023-06-10T09:37:26;26.40;44.90
34776;DHT22;20989;52.566;13.346;2023-06-10T09:40:27;26.40;44.80
34776;DHT22;20989;52.566;13.346;2023-06-10T09:43:44;26.40;45.20
34776;DHT22;20989;52.566;13.346;2023-06-10T09:46:47;26.40;45.30
34776;DHT22;20989;52.566;13.346;2023-06-10T09:49:49;26.40;45.00
34776;DHT22;20989;52.566;13.346;2023-06-10T09:52:51;26.30;44.90
34776;DHT22;20989;52.566;13.346;2023-06-10T09:55:52;26.40;44.90
34776;DHT22;20989;52.566;13.346;2023-06-10T09:58:53;26.40;44.80
34776;DHT22;20989;52.566;13.346;2023-06-10T10:01:57;26.40;44.90
34776;DHT22;20989;52.566;13.346;2023-06-10T10:05:04;26.40;44.70
34776;DHT22;20989;52.566;13.346;2023-06-10T10:08:05;26.40;44.70
34776;DHT22;20989;52.566;13.346;2023-06-10T10:11:06;26.40;44.70
34776;DHT22;20989;52.566;13.346;2023-06-10T10:14:07;26.40;44.60
34776;DHT22;20989;52.566;13.346;2023-06-10T10:17:10;26.40;44.70
34776;DHT22;20989;52.566;13.346;2023-06-10T10:20:13;26.40;44.70
34776;DHT22;20989;52.566;13.346;2023-06-10T10:23:21;26.40;44.80
34776;DHT22;20989;52.566;13.346;2023-06-10T10:26:23;26.40;45.00
34776;DHT22;20989;52.566;13.346;2023-06-10T10:29:51;26.30;45.10
34776;DHT22;20989;52.566;13.346;2023-06-10T10:33:33;26.30;45.10
34776;DHT22;20989;52.566;13.346;2023-06-10T10:36:37;26.30;45.20
34776;DHT22;20989;52.566;13.346;2023-06-10T10:39:39;26.30;45.20
34776;DHT22;20989;52.566;13.346;2023-06-10T10:42:40;26.30;45.20
34776;DHT22;20989;52.566;13.346;2023-06-10T10:45:41;26.30;45.20
34776;DHT22;20989;52.566;13.346;2023-06-10T10:48:43;26.30;45.20
34776;DHT22;20989;52.566;13.346;2023-06-10T10:52:01;26.30;45.50
34776;DHT22;20989;52.566;13.346;2023-06-10T10:55:12;26.30;45.60
34776;DHT22;20989;52.566;13.346;2023-06-10T10:58:13;26.30;45.80
34776;DHT22;20989;52.566;13.346;2023-06-10T11:01:16;26.30;45.10
34776;DHT22;20989;52.566;13.346;2023-06-10T11:04:18;26.20;45.10
34776;DHT22;20989;52.566;13.346;2023-06-10T11:07:24;26.30;45.20
34776;DHT22;20989;52.566;13.346;2023-06-10T11:10:33;26.30;45.10
34776;DHT22;20989;52.566;13.346;2023-06-10T11:13:34;26.30;45.00
34776;DHT22;20989;52.566;13.346;2023-06-10T11:16:40;26.30;45.00
34776;DHT22;20989;52.566;13.346;2023-06-10T11:19:44;26.30;45.10
34776;DHT22;20989;52.566;13.346;2023-06-10T11:22:59;26.30;45.00
34776;DHT22;20989;52.566;13.346;2023-06-10T11:29:31;26.30;44.90
34776;DHT22;20989;52.566;13.346;2023-06-10T11:32:34;26.30;45.00
34776;DHT22;20989;52.566;13.346;2023-06-10T11:35:35;26.30;44.90
34776;DHT22;20989;52.566;13.346;2023-06-10T11:38:36;26.30;44.90
34776;DHT22;20989;52.566;13.346;2023-06-10T11:41:38;26.30;45.10
34776;DHT22;20989;52.566;13.346;2023-06-10T11:44:48;26.30;45.10
34776;DHT22;20989;52.566;13.346;2023-06-10T11:47:59;26.30;45.20
34776;DHT22;20989;52.566;13.346;2023-06-10T11:51:00;26.30;45.50
34776;DHT22;20989;52.566;13.346;2023-06-10T11:54:01;26.30;47.20
34776;DHT22;20989;52.566;13.346;2023-06-10T11:57:02;26.30;48.30
34776;DHT22;20989;52.566;13.346;2023-06-10T12:00:06;26.30;48.50
34776;DHT22;20989;52.566;13.346;2023-06-10T12:03:08;26.40;49.00
34776;DHT22;20989;52.566;13.346;2023-06-10T12:06:08;26.30;48.90
34776;DHT22;20989;52.566;13.346;2023-06-10T12:12:23;26.50;49.70
34776;DHT22;20989;52.566;13.346;2023-06-10T12:15:24;26.40;50.10
34776;DHT22;20989;52.566;13.346;2023-06-10T12:18:26;26.50;50.10
34776;DHT22;20989;52.566;13.346;2023-06-10T12:21:27;26.50;50.30
34776;DHT22;20989;52.566;13.346;2023-06-10T12:24:27;26.50;49.70
34776;DHT22;20989;52.566;13.346;2023-06-10T12:27:29;26.50;48.60
34776;DHT22;20989;52.566;13.346;2023-06-10T12:30:31;26.60;48.60
34776;DHT22;20989;52.566;13.346;2023-06-10T12:33:32;26.60;48.10
34776;DHT22;20989;52.566;13.346;2023-06-10T12:36:33;26.60;47.90
34776;DHT22;20989;52.566;13.346;2023-06-10T12:39:34;26.60;47.50
34776;DHT22;20989;52.566;13.346;2023-06-10T12:42:36;26.70;47.40
34776;DHT22;20989;52.566;13.346;2023-06-10T12:45:38;26.70;46.90
34776;DHT22;20989;52.566;13.346;2023-06-10T12:48:51;26.70;46.60
34776;DHT22;20989;52.566;13.346;2023-06-10T12:51:56;26.80;46.60
34776;DHT22;20989;52.566;13.346;2023-06-10T12:54:56;26.80;46.50
34776;DHT22;20989;52.566;13.346;2023-06-10T12:57:58;26.80;46.40
34776;DHT22;20989;52.566;13.346;2023-06-10T13:00:59;26.80;46.30
34776;DHT22;20989;52.566;13.346;2023-06-10T13:03:59;26.80;46.20
34776;DHT22;20989;52.566;13.346;2023-06-10T13:07:00;26.90;46.60
34776;DHT22;20989;52.566;13.346;2023-06-10T13:10:01;26.90;46.40
34776;DHT22;20989;52.566;13.346;2023-06-10T13:13:03;26.90;46.70
34776;DHT22;20989;52.566;13.346;2023-06-10T13:16:06;26.90;46.90
34776;DHT22;20989;52.566;13.346;2023-06-10T13:19:07;26.90;47.10
34776;DHT22;20989;52.566;13.346;2023-06-10T13:22:08;26.90;47.30
34776;DHT22;20989;52.566;13.346;2023-06-10T13:25:09;26.90;47.30
34776;DHT22;20989;52.566;13.346;2023-06-10T13:28:10;27.00;47.00
34776;DHT22;20989;52.566;13.346;2023-06-10T13:31:12;27.00;47.70
34776;DHT22;20989;52.566;13.346;2023-06-10T13:34:13;27.00;47.70
34776;DHT22;20989;52.566;13.346;2023-06-10T13:37:14;27.10;47.60
34776;DHT22;20989;52.566;13.346;2023-06-10T13:40:14;27.10;47.50
34776;DHT22;20989;52.566;13.346;2023-06-10T13:43:16;27.20;47.20
34776;DHT22;20989;52.566;13.346;2023-06-10T13:46:17;27.30;47.50
34776;DHT22;20989;52.566;13.346;2023-06-10T13:49:18;27.20;47.40
34776;DHT22;20989;52.566;13.346;2023-06-10T13:52:19;27.20;47.10
34776;DHT22;20989;52.566;13.346;2023-06-10T13:55:20;27.20;47.20
34776;DHT22;20989;52.566;13.346;2023-06-10T13:58:21;27.20;46.70
34776;DHT22;20989;52.566;13.346;2023-06-10T14:01:22;27.20;47.00
34776;DHT22;20989;52.566;13.346;2023-06-10T14:04:23;27.20;46.40
34776;DHT22;20989;52.566;13.346;2023-06-10T14:07:24;27.20;47.00
34776;DHT22;20989;52.566;13.346;2023-06-10T14:10:26;27.20;46.70
34776;DHT22;20989;52.566;13.346;2023-06-10T14:13:27;27.30;46.40
34776;DHT22;20989;52.566;13.346;2023-06-10T14:16:28;27.30;46.40
34776;DHT22;20989;52.566;13.346;2023-06-10T14:19:29;27.30;46.60
34776;DHT22;20989;52.566;13.346;2023-06-10T14:22:30;27.30;46.00
34776;DHT22;20989;52.566;13.346;2023-06-10T14:25:32;27.30;46.30
34776;DHT22;20989;52.566;13.346;2023-06-10T14:28:32;27.40;46.00
34776;DHT22;20989;52.566;13.346;2023-06-10T14:31:33;27.40;45.20
34776;DHT22;20989;52.566;13.346;2023-06-10T14:34:34;27.40;44.90
34776;DHT22;20989;52.566;13.346;2023-06-10T14:37:35;27.50;45.70
34776;DHT22;20989;52.566;13.346;2023-06-10T14:40:36;27.40;45.90
34776;DHT22;20989;52.566;13.346;2023-06-10T14:43:37;27.40;44.20
34776;DHT22;20989;52.566;13.346;2023-06-10T14:46:38;27.30;44.40
34776;DHT22;20989;52.566;13.346;2023-06-10T14:49:38;27.30;44.70
34776;DHT22;20989;52.566;13.346;2023-06-10T14:52:39;27.30;43.60
34776;DHT22;20989;52.566;13.346;2023-06-10T14:55:40;27.30;43.70
34776;DHT22;20989;52.566;13.346;2023-06-10T14:58:41;27.30;43.80
34776;DHT22;20989;52.566;13.346;2023-06-10T15:01:42;27.30;44.40
34776;DHT22;20989;52.566;13.346;2023-06-10T15:04:42;27.40;45.10
34776;DHT22;20989;52.566;13.346;2023-06-10T15:07:43;27.40;43.60
34776;DHT22;20989;52.566;13.346;2023-06-10T15:10:44;27.40;43.40
34776;DHT22;20989;52.566;13.346;2023-06-10T15:13:45;27.40;42.30
34776;DHT22;20989;52.566;13.346;2023-06-10T15:16:45;27.40;42.30
34776;DHT22;20989;52.566;13.346;2023-06-10T15:19:46;27.40;43.20
34776;DHT22;20989;52.566;13.346;2023-06-10T15:22:47;27.40;43.60
34776;DHT22;20989;52.566;13.346;2023-06-10T15:25:47;27.40;43.30
34776;DHT22;20989;52.566;13.346;2023-06-10T15:28:48;27.40;43.30
34776;DHT22;20989;52.566;13.346;2023-06-10T15:31:49;27.40;44.00
34776;DHT22;20989;52.566;13.346;2023-06-10T15:34:50;27.40;43.80
34776;DHT22;20989;52.566;13.346;2023-06-10T15:37:53;27.50;44.30
34776;DHT22;20989;52.566;13.346;2023-06-10T15:40:54;27.40;44.20
34776;DHT22;20989;52.566;13.346;2023-06-10T15:43:56;27.50;44.60
34776;DHT22;20989;52.566;13.346;2023-06-10T15:47:00;27.50;44.80
34776;DHT22;20989;52.566;13.346;2023-06-10T15:50:00;27.50;44.60
34776;DHT22;20989;52.566;13.346;2023-06-10T15:53:01;27.50;44.70
34776;DHT22;20989;52.566;13.346;2023-06-10T15:56:02;27.50;44.70
34776;DHT22;20989;52.566;13.346;2023-06-10T15:59:03;27.50;45.00
34776;DHT22;20989;52.566;13.346;2023-06-10T16:02:04;27.50;44.80
34776;DHT22;20989;52.566;13.346;2023-06-10T16:05:05;27.50;44.90
34776;DHT22;20989;52.566;13.346;2023-06-10T16:08:06;27.50;44.80
34776;DHT22;20989;52.566;13.346;2023-06-10T16:11:07;27.50;44.70
34776;DHT22;20989;52.566;13.346;2023-06-10T16:14:08;27.50;44.90
34776;DHT22;20989;52.566;13.346;2023-06-10T16:17:09;27.50;44.80
34776;DHT22;20989;52.566;13.346;2023-06-10T16:20:10;27.60;44.90
34776;DHT22;20989;52.566;13.346;2023-06-10T16:23:11;27.50;44.70
34776;DHT22;20989;52.566;13.346;2023-06-10T16:26:12;27.60;44.90
34776;DHT22;20989;52.566;13.346;2023-06-10T16:29:12;27.50;44.90
34776;DHT22;20989;52.566;13.346;2023-06-10T16:32:13;27.50;45.00
34776;DHT22;20989;52.566;13.346;2023-06-10T16:35:14;27.50;44.90
34776;DHT22;20989;52.566;13.346;2023-06-10T16:38:14;27.50;44.90
34776;DHT22;20989;52.566;13.346;2023-06-10T16:41:15;27.50;45.10
34776;DHT22;20989;52.566;13.346;2023-06-10T16:44:16;27.50;44.90
34776;DHT22;20989;52.566;13.346;2023-06-10T16:47:17;27.60;45.00
34776;DHT22;20989;52.566;13.346;2023-06-10T16:50:17;27.60;45.00
34776;DHT22;20989;52.566;13.346;2023-06-10T16:53:18;27.60;44.90
34776;DHT22;20989;52.566;13.346;2023-06-10T16:56:19;27.60;45.00
34776;DHT22;20989;52.566;13.346;2023-06-10T16:59:20;27.70;44.90
34776;DHT22;20989;52.566;13.346;2023-06-10T17:02:21;27.60;44.80
34776;DHT22;20989;52.566;13.346;2023-06-10T17:05:21;27.60;44.90
34776;DHT22;20989;52.566;13.346;2023-06-10T17:08:22;27.60;44.70
34776;DHT22;20989;52.566;13.346;2023-06-10T17:11:23;27.70;44.90
34776;DHT22;20989;52.566;13.346;2023-06-10T17:14:23;27.60;44.80
34776;DHT22;20989;52.566;13.346;2023-06-10T17:17:26;27.60;44.80
34776;DHT22;20989;52.566;13.346;2023-06-10T17:20:26;27.70;44.70
34776;DHT22;20989;52.566;13.346;2023-06-10T17:23:29;27.70;44.80
34776;DHT22;20989;52.566;13.346;2023-06-10T17:26:30;27.70;44.80
34776;DHT22;20989;52.566;13.346;2023-06-10T17:29:30;27.70;44.80
34776;DHT22;20989;52.566;13.346;2023-06-10T17:32:32;27.70;45.10
34776;DHT22;20989;52.566;13.346;2023-06-10T17:35:33;27.70;44.90
34776;DHT22;20989;52.566;13.346;2023-06-10T17:38:34;27.70;45.00
34776;DHT22;20989;52.566;13.346;2023-06-10T17:41:35;27.70;44.90
34776;DHT22;20989;52.566;13.346;2023-06-10T17:44:35;27.70;45.10
34776;DHT22;20989;52.566;13.346;2023-06-10T17:47:36;27.80;45.10
34776;DHT22;20989;52.566;13.346;2023-06-10T17:50:38;27.70;45.20
34776;DHT22;20989;52.566;13.346;2023-06-10T17:53:38;27.70;45.40
34776;DHT22;20989;52.566;13.346;2023-06-10T17:56:39;27.70;45.20
34776;DHT22;20989;52.566;13.346;2023-06-10T17:59:40;27.70;45.50
34776;DHT22;20989;52.566;13.346;2023-06-10T18:02:41;27.70;45.90
34776;DHT22;20989;52.566;13.346;2023-06-10T18:05:42;27.70;45.70
34776;DHT22;20989;52.566;13.346;2023-06-10T18:08:43;27.80;45.80
34776;DHT22;20989;52.566;13.346;2023-06-10T18:11:43;27.80;45.70
34776;DHT22;20989;52.566;13.346;2023-06-10T18:14:45;27.80;45.60
34776;DHT22;20989;52.566;13.346;2023-06-10T18:17:45;27.80;45.60
34776;DHT22;20989;52.566;13.346;2023-06-10T18:20:46;27.80;45.60
34776;DHT22;20989;52.566;13.346;2023-06-10T18:23:47;27.90;45.50
34776;DHT22;20989;52.566;13.346;2023-06-10T18:26:47;27.90;45.70
34776;DHT22;20989;52.566;13.346;2023-06-10T18:29:48;27.80;45.50
34776;DHT22;20989;52.566;13.346;2023-06-10T18:32:49;27.80;45.50
34776;DHT22;20989;52.566;13.346;2023-06-10T18:35:49;27.70;45.50
34776;DHT22;20989;52.566;13.346;2023-06-10T18:38:50;27.70;45.30
34776;DHT22;20989;52.566;13.346;2023-06-10T18:41:51;27.70;45.80
34776;DHT22;20989;52.566;13.346;2023-06-10T18:44:51;27.60;45.00
34776;DHT22;20989;52.566;13.346;2023-06-10T18:47:52;27.60;45.40
34776;DHT22;20989;52.566;13.346;2023-06-10T18:50:53;27.60;45.50
34776;DHT22;20989;52.566;13.346;2023-06-10T18:53:53;27.50;45.10
34776;DHT22;20989;52.566;13.346;2023-06-10T18:56:54;27.50;45.10
34776;DHT22;20989;52.566;13.346;2023-06-10T18:59:58;27.50;45.30